Time;durP1;ratioP1;P1;durP2;ratioP2;P2;SDS_P1;SDS_P2;PMS_P1;PMS_P2;Temp;Humidity;BMP_temperature;BMP_pressure;BME280_temperature;BME280_humidity;BME280_pressure;Samples;Min_cycle;Max_cycle;Signal;HPM_P1;HPM_P2
2022/06/24 00:01:24;;;;;;;3.50;1.85;;;15.60;90.40;;;;;;4208876;28;20028;-65
2022/06/24 00:03:31;;;;;;;4.85;1.75;;;15.60;90.50;;;;;;4208364;28;20036;-68
2022/06/24 00:05:35;;;;;;;1.92;1.40;;;15.60;90.50;;;;;;4192041;28;20098;-65
2022/06/24 00:07:49;;;;;;;3.88;1.63;;;15.60;90.40;;;;;;4193622;28;20045;-65
2022/06/24 00:09:51;;;;;;;2.13;1.48;;;15.60;90.50;;;;;;4192009;28;20075;-64
2022/06/24 00:12:09;;;;;;;4.18;1.65;;;15.60;90.50;;;;;;4194455;28;20032;-66
2022/06/24 00:14:14;;;;;;;3.83;1.63;;;15.50;90.90;;;;;;4191084;28;20094;-65
2022/06/24 00:16:15;;;;;;;4.72;1.80;;;15.40;90.70;;;;;;4192698;28;20082;-66
2022/06/24 00:18:19;;;;;;;4.95;1.67;;;15.40;90.80;;;;;;4192122;28;20086;-67
2022/06/24 00:20:21;;;;;;;4.05;1.55;;;15.40;90.80;;;;;;4192828;28;20090;-64
2022/06/24 00:22:24;;;;;;;3.75;1.67;;;15.30;90.90;;;;;;4193117;28;20085;-64
2022/06/24 00:24:25;;;;;;;7.57;1.60;;;15.30;90.90;;;;;;4192985;28;20037;-65
2022/06/24 00:26:42;;;;;;;4.30;1.38;;;15.30;91.00;;;;;;4194779;28;20053;-67
2022/06/24 00:28:44;;;;;;;4.95;1.80;;;15.20;91.20;;;;;;4209826;28;20028;-63
2022/06/24 00:30:53;;;;;;;3.33;1.70;;;15.20;91.10;;;;;;4208273;28;20044;-66
2022/06/24 00:33:11;;;;;;;3.30;2.10;;;15.10;91.40;;;;;;4209213;28;20048;-65
2022/06/24 00:35:17;;;;;;;2.22;1.88;;;15.10;91.90;;;;;;4208252;28;20576;-68
2022/06/24 00:37:29;;;;;;;4.32;2.08;;;15.00;91.70;;;;;;4209427;28;20136;-63
2022/06/24 00:39:32;;;;;;;5.75;1.70;;;14.90;92.20;;;;;;4208342;28;20070;-68
2022/06/24 00:41:35;;;;;;;2.80;1.52;;;14.80;92.10;;;;;;4202838;28;20439;-63
2022/06/24 00:43:37;;;;;;;5.20;2.40;;;14.80;92.20;;;;;;4191917;28;20056;-65
2022/06/24 00:45:48;;;;;;;3.10;1.77;;;14.80;92.30;;;;;;4192413;28;20086;-66
2022/06/24 00:47:50;;;;;;;3.72;1.85;;;14.70;92.40;;;;;;4192886;28;20044;-66
2022/06/24 00:49:54;;;;;;;5.97;1.90;;;14.60;92.50;;;;;;4193349;28;20102;-64
2022/06/24 00:51:56;;;;;;;5.07;1.92;;;14.60;92.60;;;;;;4191832;28;20122;-65
2022/06/24 00:54:05;;;;;;;4.07;1.60;;;14.60;92.70;;;;;;4192789;28;20040;-65
2022/06/24 00:56:08;;;;;;;2.90;1.60;;;14.60;92.80;;;;;;4194490;28;20058;-64
2022/06/24 00:58:15;;;;;;;2.60;1.63;;;14.50;92.80;;;;;;4192267;28;20024;-64
2022/06/24 01:00:17;;;;;;;2.40;1.70;;;14.50;93.00;;;;;;4203257;28;20028;-66
2022/06/24 01:02:18;;;;;;;3.53;1.58;;;14.50;93.10;;;;;;4208047;28;20048;-66
2022/06/24 01:04:19;;;;;;;2.17;1.80;;;14.50;93.10;;;;;;4208518;28;20554;-66
2022/06/24 01:06:21;;;;;;;4.53;2.03;;;14.40;93.20;;;;;;4208263;28;20036;-69
2022/06/24 01:08:22;;;;;;;7.67;2.33;;;14.40;93.30;;;;;;4208851;28;20074;-64
2022/06/24 01:10:23;;;;;;;4.17;1.77;;;14.40;93.40;;;;;;4207455;28;20040;-67
2022/06/24 01:12:24;;;;;;;5.37;1.63;;;14.30;93.60;;;;;;4204310;28;20439;-64
2022/06/24 01:14:26;;;;;;;2.47;1.60;;;14.30;94.00;;;;;;4191130;28;20025;-63
2022/06/24 01:16:27;;;;;;;2.60;1.70;;;14.30;94.20;;;;;;4192781;28;20037;-68
2022/06/24 01:18:29;;;;;;;4.80;1.70;;;14.30;94.00;;;;;;4191241;28;20029;-64
2022/06/24 01:20:30;;;;;;;6.47;1.67;;;14.30;94.00;;;;;;4192656;28;20070;-68
2022/06/24 01:22:32;;;;;;;4.03;1.83;;;14.30;94.00;;;;;;4190521;28;20032;-67
2022/06/24 01:24:33;;;;;;;3.33;1.75;;;14.30;94.00;;;;;;4192258;28;20032;-64
2022/06/24 01:26:36;;;;;;;1.90;1.53;;;14.30;94.30;;;;;;4191026;28;20029;-68
2022/06/24 01:28:37;;;;;;;4.53;1.70;;;14.30;94.30;;;;;;4191471;28;20049;-64
2022/06/24 01:30:38;;;;;;;3.27;1.73;;;14.30;94.40;;;;;;4191235;28;20036;-68
2022/06/24 01:32:40;;;;;;;4.13;1.70;;;14.30;94.30;;;;;;4191326;28;20036;-62
2022/06/24 01:34:42;;;;;;;3.80;1.53;;;14.30;94.40;;;;;;4191104;28;20122;-64
2022/06/24 01:36:43;;;;;;;7.13;1.93;;;14.30;94.70;;;;;;4192511;28;20904;-66
2022/06/24 01:38:44;;;;;;;2.27;1.83;;;14.30;94.50;;;;;;4207026;28;20078;-66
2022/06/24 01:40:46;;;;;;;3.03;1.57;;;14.30;94.50;;;;;;4201078;28;20090;-65
2022/06/24 01:42:47;;;;;;;3.03;1.50;;;14.30;94.50;;;;;;4192366;28;20878;-65
2022/06/24 01:44:48;;;;;;;7.50;1.67;;;14.30;94.40;;;;;;4190450;28;20045;-67
2022/06/24 01:46:50;;;;;;;6.70;4.30;;;14.30;94.80;;;;;;4192080;28;20082;-65
2022/06/24 01:48:51;;;;;;;6.27;3.07;;;14.30;94.60;;;;;;4190792;28;20067;-66
2022/06/24 01:50:52;;;;;;;2.43;2.00;;;14.20;94.70;;;;;;4192591;28;20082;-65
2022/06/24 01:52:54;;;;;;;3.83;2.23;;;14.30;94.80;;;;;;4189881;28;20040;-65
2022/06/24 01:54:55;;;;;;;1.83;1.33;;;14.20;94.80;;;;;;4191577;28;20032;-65
2022/06/24 01:56:56;;;;;;;4.70;1.90;;;14.20;94.90;;;;;;4183653;28;20025;-63
2022/06/24 01:58:57;;;;;;;3.43;1.40;;;14.30;94.90;;;;;;4174233;28;20130;-67
2022/06/24 02:00:58;;;;;;;5.47;1.53;;;14.30;94.60;;;;;;4173812;28;20059;-65
2022/06/24 02:03:03;;;;;;;2.47;1.40;;;14.30;94.60;;;;;;4191909;28;20048;-63
2022/06/24 02:05:05;;;;;;;2.03;1.50;;;14.30;94.50;;;;;;4207279;28;20132;-68
2022/06/24 02:07:07;;;;;;;2.53;1.37;;;14.30;94.60;;;;;;4207747;28;20699;-65
2022/06/24 02:09:08;;;;;;;1.40;1.30;;;14.30;94.70;;;;;;4208189;28;20016;-67
2022/06/24 02:13:29;;;;;;;1.65;1.50;;;14.20;94.90;;;;;;4208782;28;20040;-63
2022/06/24 02:15:30;;;;;;;2.33;1.47;;;14.20;95.00;;;;;;4206960;28;20024;-69
2022/06/24 02:17:31;;;;;;;2.87;1.37;;;14.20;94.90;;;;;;4200075;28;20059;-70
2022/06/24 02:19:33;;;;;;;2.00;1.20;;;14.20;95.00;;;;;;4190152;28;20097;-66
2022/06/24 02:21:35;;;;;;;3.70;1.40;;;14.20;95.00;;;;;;4191022;28;20074;-66
2022/06/24 02:23:36;;;;;;;2.43;1.70;;;14.20;95.00;;;;;;4189734;28;20086;-64
2022/06/24 02:25:37;;;;;;;4.43;1.40;;;14.10;95.00;;;;;;4194355;28;20389;-66
2022/06/24 02:27:39;;;;;;;1.57;1.40;;;14.10;95.00;;;;;;4205810;28;20465;-64
2022/06/24 02:29:40;;;;;;;1.13;1.00;;;14.10;94.90;;;;;;4191446;28;20481;-66
2022/06/24 02:31:41;;;;;;;3.63;1.50;;;14.10;95.00;;;;;;4189657;28;20028;-66
2022/06/24 02:33:43;;;;;;;2.07;1.40;;;14.10;95.10;;;;;;4191046;28;20029;-66
2022/06/24 02:35:44;;;;;;;4.27;1.50;;;14.00;95.10;;;;;;4189676;28;20037;-63
2022/06/24 02:37:45;;;;;;;1.70;1.20;;;14.00;95.20;;;;;;4190752;28;20032;-68
2022/06/24 02:39:46;;;;;;;4.20;1.70;;;13.90;95.30;;;;;;4191321;28;20440;-64
2022/06/24 02:41:47;;;;;;;5.77;1.60;;;13.90;95.40;;;;;;4190199;28;20032;-64
2022/06/24 02:43:48;;;;;;;3.40;1.50;;;13.80;95.60;;;;;;4190738;28;20048;-64
2022/06/24 02:45:51;;;;;;;2.60;1.70;;;13.80;95.70;;;;;;4190130;28;20102;-64
2022/06/24 02:47:52;;;;;;;3.47;2.00;;;13.90;95.80;;;;;;4190320;28;20040;-64
2022/06/24 02:49:53;;;;;;;3.50;2.00;;;14.00;95.80;;;;;;4187881;28;20036;-63
2022/06/24 02:51:54;;;;;;;3.20;1.40;;;14.10;95.70;;;;;;4191150;28;20021;-65
2022/06/24 02:53:55;;;;;;;4.27;1.60;;;14.30;95.50;;;;;;4205735;28;20100;-63
2022/06/24 02:56:05;;;;;;;3.03;1.63;;;14.50;95.30;;;;;;4207300;28;20024;-64
2022/06/24 02:58:06;;;;;;;2.23;1.53;;;14.70;95.00;;;;;;4205780;28;20069;-64
2022/06/24 03:00:08;;;;;;;3.70;1.70;;;15.00;94.70;;;;;;4207282;28;20043;-65
2022/06/24 03:02:09;;;;;;;5.13;1.80;;;15.20;94.30;;;;;;4205783;28;20575;-63
2022/06/24 03:04:10;;;;;;;5.83;1.73;;;15.40;93.90;;;;;;4207354;28;20024;-66
2022/06/24 03:06:11;;;;;;;3.77;2.00;;;15.70;93.60;;;;;;4205955;28;20039;-62
2022/06/24 03:08:14;;;;;;;5.07;1.80;;;15.90;93.20;;;;;;4193080;28;20044;-63
2022/06/24 03:10:16;;;;;;;4.43;1.70;;;16.10;92.90;;;;;;4190656;28;20036;-66
2022/06/24 03:12:17;;;;;;;1.83;1.27;;;16.40;92.50;;;;;;4207041;28;20502;-67
2022/06/24 03:14:18;;;;;;;2.15;1.60;;;16.60;92.30;;;;;;4206912;28;20473;-65
2022/06/24 03:16:19;;;;;;;6.63;1.40;;;16.90;91.90;;;;;;4206628;28;20032;-70
2022/06/24 03:18:20;;;;;;;2.30;1.50;;;17.20;91.40;;;;;;4206920;28;20024;-65
2022/06/24 03:20:22;;;;;;;2.08;1.38;;;17.40;91.00;;;;;;4199511;28;20104;-64
2022/06/24 03:22:23;;;;;;;3.90;1.48;;;17.60;90.60;;;;;;4190940;28;20076;-63
2022/06/24 03:24:24;;;;;;;2.30;1.38;;;17.90;90.30;;;;;;4188994;28;20451;-66
2022/06/24 03:26:25;;;;;;;3.97;1.50;;;18.10;90.10;;;;;;4191318;28;20574;-65
2022/06/24 03:28:26;;;;;;;2.08;1.40;;;18.50;89.70;;;;;;4189099;28;20554;-64
2022/06/24 03:30:27;;;;;;;3.42;1.67;;;18.80;88.80;;;;;;4198074;28;20035;-65
2022/06/24 03:32:29;;;;;;;6.78;2.25;;;19.30;87.90;;;;;;4205840;28;20043;-65
2022/06/24 03:34:30;;;;;;;4.78;1.70;;;19.60;87.10;;;;;;4207004;28;20081;-65
2022/06/24 03:36:31;;;;;;;3.08;1.60;;;19.90;86.10;;;;;;4205219;28;20085;-64
2022/06/24 03:38:32;;;;;;;2.22;1.35;;;20.20;85.30;;;;;;4206801;28;20077;-64
2022/06/24 03:40:34;;;;;;;4.90;2.08;;;20.50;84.40;;;;;;4199564;28;20090;-64
2022/06/24 03:42:36;;;;;;;5.32;1.48;;;20.70;83.60;;;;;;4190132;28;20025;-64
2022/06/24 03:44:37;;;;;;;4.75;1.48;;;21.00;82.80;;;;;;4189600;28;20044;-65
2022/06/24 03:46:38;;;;;;;3.22;1.60;;;21.20;82.00;;;;;;4189776;28;20745;-66
2022/06/24 03:48:39;;;;;;;9.77;1.90;;;21.20;81.30;;;;;;4200464;28;20036;-66
2022/06/24 03:50:40;;;;;;;10.65;2.65;;;21.40;81.40;;;;;;4189438;28;20032;-62
2022/06/24 03:52:41;;;;;;;4.15;1.70;;;21.80;80.80;;;;;;4190047;28;20028;-64
2022/06/24 03:54:42;;;;;;;3.40;1.60;;;22.10;79.70;;;;;;4189161;28;20066;-63
2022/06/24 03:56:44;;;;;;;6.22;1.50;;;22.30;78.90;;;;;;4189797;28;20028;-64
2022/06/24 03:58:45;;;;;;;3.38;1.40;;;22.50;78.20;;;;;;4188254;28;20036;-63
2022/06/24 04:00:46;;;;;;;4.05;1.70;;;22.60;77.50;;;;;;4190219;28;20449;-66
2022/06/24 04:02:47;;;;;;;2.72;1.60;;;22.50;77.10;;;;;;4188776;28;20041;-62
2022/06/24 04:04:48;;;;;;;2.47;1.60;;;22.50;77.20;;;;;;4189838;28;20025;-63
2022/06/24 04:06:49;;;;;;;4.07;1.85;;;22.60;76.90;;;;;;4188363;28;20841;-65
2022/06/24 04:08:52;;;;;;;5.50;1.58;;;22.80;76.50;;;;;;4190492;28;20548;-67
2022/06/24 04:10:53;;;;;;;10.07;1.60;;;23.20;75.90;;;;;;4188963;28;20063;-65
2022/06/24 04:12:55;;;;;;;4.78;1.77;;;23.20;75.40;;;;;;4190686;28;20157;-64
2022/06/24 04:15:14;;;;;;;4.57;1.80;;;23.50;74.90;;;;;;4189083;28;20828;-64
2022/06/24 04:17:15;;;;;;;4.57;1.80;;;23.80;74.50;;;;;;4189622;28;20438;-67
2022/06/24 04:19:16;;;;;;;3.88;2.20;;;24.60;73.60;;;;;;4188914;28;20025;-68
2022/06/24 04:21:18;;;;;;;9.00;2.53;;;25.20;72.50;;;;;;4190770;28;20086;-67
2022/06/24 04:23:20;;;;;;;3.75;1.80;;;25.50;71.20;;;;;;4208024;28;20833;-66
2022/06/24 04:25:21;;;;;;;5.43;1.80;;;26.00;70.50;;;;;;4208092;28;20040;-65
2022/06/24 04:27:22;;;;;;;4.85;1.75;;;26.50;69.70;;;;;;4209184;28;20043;-67
2022/06/24 04:29:23;;;;;;;4.00;1.55;;;27.00;68.80;;;;;;4207430;28;20070;-63
2022/06/24 04:31:24;;;;;;;5.88;1.67;;;27.10;68.10;;;;;;4192821;28;20028;-64
2022/06/24 04:33:25;;;;;;;7.15;1.98;;;27.30;67.60;;;;;;4191133;28;20040;-63
2022/06/24 04:35:27;;;;;;;1.80;1.13;;;27.60;66.80;;;;;;4192709;28;20032;-63
2022/06/24 04:37:28;;;;;;;5.72;2.30;;;27.80;66.20;;;;;;4195805;28;21341;-63
2022/06/24 04:39:29;;;;;;;6.47;1.45;;;28.00;65.50;;;;;;4202407;28;20102;-63
2022/06/24 04:41:31;;;;;;;2.75;1.15;;;28.20;65.00;;;;;;4190946;28;20105;-66
2022/06/24 04:43:32;;;;;;;4.25;1.50;;;28.40;64.60;;;;;;4192448;28;20094;-65
2022/06/24 04:45:33;;;;;;;8.60;2.15;;;28.70;64.00;;;;;;4190513;28;20048;-62
2022/06/24 04:47:34;;;;;;;3.45;1.60;;;27.90;63.80;;;;;;4174494;28;20087;-65
2022/06/24 04:49:37;;;;;;;6.00;1.67;;;27.50;64.60;;;;;;4206423;28;20153;-63
2022/06/24 04:51:38;;;;;;;8.77;1.80;;;27.30;64.40;;;;;;4207202;28;20044;-63
2022/06/24 04:53:41;;;;;;;6.32;2.10;;;27.50;64.30;;;;;;4208221;28;20160;-64
2022/06/24 04:55:42;;;;;;;5.82;2.10;;;27.80;64.20;;;;;;4207586;28;20138;-64
2022/06/24 04:57:44;;;;;;;7.95;2.22;;;28.00;63.90;;;;;;4201272;28;20086;-67
2022/06/24 04:59:45;;;;;;;3.75;1.88;;;28.20;63.60;;;;;;4192308;28;20443;-66
2022/06/24 05:01:46;;;;;;;7.50;1.80;;;28.70;63.60;;;;;;4192400;28;20507;-61
2022/06/24 05:03:47;;;;;;;5.47;1.58;;;28.80;63.10;;;;;;4190262;28;20036;-64
2022/06/24 05:05:48;;;;;;;13.95;2.45;;;29.00;62.80;;;;;;4192258;28;20475;-64
2022/06/24 05:07:49;;;;;;;4.88;1.30;;;29.10;62.50;;;;;;4190192;28;20090;-63
2022/06/24 05:09:50;;;;;;;5.15;1.30;;;29.00;62.10;;;;;;4199768;28;20036;-67
2022/06/24 05:11:52;;;;;;;3.95;1.10;;;28.30;62.10;;;;;;4205993;28;20081;-64
2022/06/24 05:13:53;;;;;;;3.13;1.50;;;28.20;62.50;;;;;;4208681;28;20040;-64
2022/06/24 05:15:54;;;;;;;1.23;0.77;;;28.50;62.50;;;;;;4206695;28;20097;-64
2022/06/24 05:17:55;;;;;;;3.40;1.30;;;29.10;61.80;;;;;;4207748;28;20085;-64
2022/06/24 05:19:56;;;;;;;3.95;1.10;;;29.60;61.10;;;;;;4205606;28;20586;-66
2022/06/24 05:21:57;;;;;;;1.77;0.90;;;29.80;60.40;;;;;;4207136;28;20105;-64
2022/06/24 05:23:59;;;;;;;3.05;1.00;;;29.80;60.20;;;;;;4206674;28;20839;-67
2022/06/24 05:26:00;;;;;;;2.67;1.20;;;30.20;59.90;;;;;;4206113;28;20100;-64
2022/06/24 05:28:01;;;;;;;3.30;0.95;;;29.70;59.50;;;;;;4207530;28;20645;-65
2022/06/24 05:30:03;;;;;;;2.28;0.93;;;29.50;59.70;;;;;;4206831;28;20074;-65
2022/06/24 05:32:05;;;;;;;3.80;1.27;;;29.50;59.40;;;;;;4207133;28;20443;-64
2022/06/24 05:34:09;;;;;;;2.35;1.33;;;29.90;59.30;;;;;;4205108;28;20104;-67
2022/06/24 05:36:10;;;;;;;2.75;1.17;;;30.30;59.00;;;;;;4207791;28;20513;-64
2022/06/24 05:38:11;;;;;;;1.65;1.08;;;30.80;58.60;;;;;;4206088;28;20040;-66
2022/06/24 05:40:12;;;;;;;16.00;2.83;;;31.10;58.10;;;;;;4207604;28;20446;-63
2022/06/24 05:42:13;;;;;;;20.30;3.28;;;29.90;58.10;;;;;;4206164;28;20520;-65
2022/06/24 05:44:14;;;;;;;6.78;2.40;;;28.40;59.70;;;;;;4208449;28;20024;-64
2022/06/24 05:46:15;;;;;;;12.90;2.58;;;28.10;61.00;;;;;;4206436;28;20093;-64
2022/06/24 05:48:17;;;;;;;10.55;3.00;;;28.50;60.90;;;;;;4207704;28;20097;-66
2022/06/24 05:50:18;;;;;;;18.88;3.03;;;28.90;60.50;;;;;;4206971;28;20069;-64
2022/06/24 05:55:02;;;;;;;8.98;1.67;;;29.20;60.10;;;;;;4206709;28;20089;-65
2022/06/24 05:57:00;;;;;;;16.40;2.90;;;27.40;61.80;;;;;;4207710;28;20101;-64
2022/06/24 05:59:02;;;;;;;8.48;2.00;;;26.90;62.50;;;;;;4206295;28;20032;-62
2022/06/24 06:01:11;;;;;;;12.85;2.20;;;27.00;63.00;;;;;;4207442;28;20028;-68
2022/06/24 06:03:12;;;;;;;9.60;2.55;;;27.70;62.30;;;;;;4206752;28;20051;-70
2022/06/24 06:05:13;;;;;;;13.95;3.00;;;27.50;61.80;;;;;;4207009;28;20093;-67
2022/06/24 06:07:14;;;;;;;9.98;2.13;;;27.30;62.10;;;;;;4184667;28;20095;-63
2022/06/24 06:09:16;;;;;;;4.80;1.67;;;27.10;62.40;;;;;;4173568;28;20580;-66
2022/06/24 06:11:22;;;;;;;6.68;1.70;;;26.70;62.40;;;;;;4174459;28;20519;-62
2022/06/24 06:13:24;;;;;;;8.50;1.42;;;26.70;62.60;;;;;;4173392;28;20457;-63
2022/06/24 06:15:25;;;;;;;5.13;1.45;;;26.50;62.80;;;;;;4174828;28;20041;-62
2022/06/24 06:17:26;;;;;;;2.75;1.50;;;27.10;62.60;;;;;;4173397;28;20054;-63
2022/06/24 06:19:27;;;;;;;2.88;1.25;;;27.20;62.10;;;;;;4174560;28;20033;-62
2022/06/24 06:21:28;;;;;;;4.88;1.80;;;26.90;62.80;;;;;;4173733;28;20036;-63
2022/06/24 06:23:30;;;;;;;1.10;0.90;;;26.60;62.90;;;;;;4174192;28;20135;-61
2022/06/24 06:25:31;;;;;;;5.97;0.80;;;26.20;63.20;;;;;;4173263;28;20511;-63
2022/06/24 06:27:33;;;;;;;4.22;1.05;;;25.90;63.50;;;;;;4174342;28;20473;-62
2022/06/24 06:29:34;;;;;;;1.75;1.15;;;25.40;64.60;;;;;;4172830;28;20126;-62
2022/06/24 06:31:35;;;;;;;2.75;0.90;;;25.50;64.80;;;;;;4174417;28;20028;-64
2022/06/24 06:33:37;;;;;;;3.35;1.13;;;25.40;64.50;;;;;;4171953;28;20037;-65
2022/06/24 06:35:38;;;;;;;2.05;0.80;;;25.10;64.60;;;;;;4174003;28;20109;-67
2022/06/24 06:37:39;;;;;;;4.28;0.85;;;25.10;64.70;;;;;;4172743;28;20029;-65
2022/06/24 06:39:40;;;;;;;5.15;1.00;;;24.90;65.00;;;;;;4173389;28;20095;-62
2022/06/24 06:41:46;;;;;;;2.63;0.75;;;25.00;65.30;;;;;;4173866;28;20539;-62
2022/06/24 06:43:47;;;;;;;2.53;0.63;;;24.90;65.10;;;;;;4173674;28;20028;-64
2022/06/24 06:45:48;;;;;;;1.73;1.00;;;24.70;65.10;;;;;;4173824;28;20037;-64
2022/06/24 06:47:50;;;;;;;2.45;1.02;;;24.80;65.00;;;;;;4173028;28;20504;-62
2022/06/24 06:49:52;;;;;;;2.88;0.80;;;24.70;65.00;;;;;;4174339;28;20095;-61
2022/06/24 06:51:53;;;;;;;0.73;0.50;;;24.50;65.50;;;;;;4172372;28;20040;-62
2022/06/24 06:53:54;;;;;;;4.88;1.13;;;24.40;65.80;;;;;;4173674;28;20029;-63
2022/06/24 06:55:56;;;;;;;1.63;0.80;;;24.50;65.90;;;;;;4172654;28;20489;-63
2022/06/24 06:57:57;;;;;;;2.30;0.70;;;24.20;66.20;;;;;;4173780;28;20037;-63
2022/06/24 06:59:58;;;;;;;4.80;1.08;;;24.10;66.50;;;;;;4172631;28;20566;-63
2022/06/24 07:01:59;;;;;;;1.52;0.60;;;23.70;67.50;;;;;;4173810;28;20048;-62
2022/06/24 07:04:00;;;;;;;3.92;0.70;;;23.40;68.10;;;;;;4172552;28;20413;-61
2022/06/24 07:06:01;;;;;;;2.25;1.02;;;23.60;68.00;;;;;;4173828;28;20017;-64
2022/06/24 07:08:04;;;;;;;3.35;0.80;;;23.70;67.50;;;;;;4172253;28;20037;-61
2022/06/24 07:10:07;;;;;;;3.50;0.77;;;23.70;67.70;;;;;;4173992;28;20567;-61
2022/06/24 07:12:08;;;;;;;4.70;1.17;;;23.70;67.60;;;;;;4173129;28;20075;-63
2022/06/24 07:14:09;;;;;;;1.73;0.80;;;23.90;68.10;;;;;;4172963;28;20099;-60
2022/06/24 07:16:11;;;;;;;4.55;1.60;;;23.70;68.40;;;;;;4173670;28;20529;-63
2022/06/24 07:18:12;;;;;;;4.93;1.00;;;23.90;67.80;;;;;;4172793;28;20029;-62
2022/06/24 07:20:13;;;;;;;2.92;0.80;;;23.90;67.30;;;;;;4173864;28;20082;-63
2022/06/24 07:22:14;;;;;;;3.75;0.88;;;24.00;66.70;;;;;;4172094;28;20079;-63
2022/06/24 07:24:15;;;;;;;0.85;0.75;;;24.50;66.40;;;;;;4173779;28;20440;-62
2022/06/24 07:26:17;;;;;;;3.25;0.50;;;24.50;65.90;;;;;;4172069;28;20580;-65
2022/06/24 07:28:18;;;;;;;0.73;0.73;;;24.50;65.80;;;;;;4173177;28;20036;-62
2022/06/24 07:30:19;;;;;;;1.40;0.65;;;24.50;65.70;;;;;;4172425;28;20033;-62
2022/06/24 07:32:20;;;;;;;5.28;1.83;;;24.70;65.60;;;;;;4174023;28;20481;-63
2022/06/24 07:34:21;;;;;;;1.95;0.95;;;24.50;65.80;;;;;;4172946;28;20033;-62
2022/06/24 07:36:22;;;;;;;5.88;1.90;;;24.40;66.10;;;;;;4172849;28;20045;-62
2022/06/24 07:38:23;;;;;;;1.92;0.73;;;24.20;66.70;;;;;;4172380;28;20031;-62
2022/06/24 07:40:25;;;;;;;2.10;0.80;;;24.30;67.10;;;;;;4173465;28;20566;-62
2022/06/24 07:42:26;;;;;;;2.25;1.00;;;24.80;66.80;;;;;;4177774;28;20466;-63
2022/06/24 07:44:27;;;;;;;4.28;0.88;;;25.20;66.30;;;;;;4172736;28;20036;-64
2022/06/24 07:46:29;;;;;;;6.55;1.02;;;25.00;66.00;;;;;;4173265;28;20037;-62
2022/06/24 07:48:30;;;;;;;2.25;1.02;;;24.90;66.20;;;;;;4171833;28;20529;-63
2022/06/24 07:50:31;;;;;;;2.03;1.10;;;24.90;66.30;;;;;;4173075;28;20045;-61
2022/06/24 07:52:32;;;;;;;4.00;1.10;;;24.90;66.60;;;;;;4171764;28;20033;-61
2022/06/24 07:54:33;;;;;;;4.10;0.98;;;24.70;67.00;;;;;;4172073;28;20154;-63
2022/06/24 07:56:56;;;;;;;1.35;1.00;;;24.80;67.20;;;;;;4173579;28;20037;-64
2022/06/24 07:58:57;;;;;;;5.60;1.00;;;25.30;67.10;;;;;;4174843;28;20094;-65
2022/06/24 08:01:01;;;;;;;3.85;0.95;;;25.50;66.30;;;;;;4174767;28;20041;-63
2022/06/24 08:03:02;;;;;;;1.75;1.20;;;25.30;66.20;;;;;;4176449;28;20734;-63
2022/06/24 08:05:03;;;;;;;2.10;1.08;;;25.20;66.30;;;;;;4175378;28;20419;-62
2022/06/24 08:07:05;;;;;;;2.10;0.90;;;25.10;66.50;;;;;;4176110;28;20049;-63
2022/06/24 08:09:07;;;;;;;3.22;0.88;;;25.30;66.80;;;;;;4175214;28;20090;-63
2022/06/24 08:11:08;;;;;;;1.98;1.00;;;25.40;66.30;;;;;;4176350;28;20048;-62
2022/06/24 08:13:09;;;;;;;1.17;1.05;;;25.40;66.20;;;;;;4174859;28;20052;-66
2022/06/24 08:15:11;;;;;;;1.83;0.85;;;25.20;66.50;;;;;;4176106;28;20029;-63
2022/06/24 08:17:12;;;;;;;4.97;1.27;;;25.30;66.80;;;;;;4175057;28;20024;-63
2022/06/24 08:19:14;;;;;;;3.17;1.27;;;25.40;66.30;;;;;;4175633;28;20037;-62
2022/06/24 08:21:17;;;;;;;2.78;1.50;;;25.70;66.00;;;;;;4175258;28;20078;-67
2022/06/24 08:23:19;;;;;;;2.45;0.60;;;25.90;65.70;;;;;;4174937;28;20021;-62
2022/06/24 08:25:20;;;;;;;5.80;0.88;;;26.00;65.20;;;;;;4175788;28;20087;-66
2022/06/24 08:27:21;;;;;;;2.25;0.80;;;26.00;65.20;;;;;;4174193;28;20045;-62
2022/06/24 08:29:22;;;;;;;7.13;1.10;;;26.00;64.90;;;;;;4175581;28;20037;-65
2022/06/24 08:31:23;;;;;;;1.73;1.00;;;25.70;64.90;;;;;;4174825;28;20389;-61
2022/06/24 08:33:24;;;;;;;3.47;0.95;;;25.90;65.10;;;;;;4175321;28;20029;-63
2022/06/24 08:35:26;;;;;;;2.97;0.90;;;26.00;64.80;;;;;;4174433;28;20853;-64
2022/06/24 08:37:27;;;;;;;2.60;0.70;;;25.60;65.30;;;;;;4175237;28;20045;-61
2022/06/24 08:39:28;;;;;;;3.22;0.95;;;25.50;65.20;;;;;;4174547;28;20427;-62
2022/06/24 08:41:29;;;;;;;4.68;0.90;;;25.70;65.30;;;;;;4175864;28;20099;-67
2022/06/24 08:43:33;;;;;;;4.70;1.10;;;25.80;65.50;;;;;;4174627;28;20455;-63
2022/06/24 08:45:35;;;;;;;4.13;3.33;;;25.90;65.20;;;;;;4176402;28;20063;-63
2022/06/24 08:47:36;;;;;;;2.30;1.70;;;25.90;65.00;;;;;;4174297;28;20029;-62
2022/06/24 08:49:38;;;;;;;3.58;1.00;;;26.20;64.80;;;;;;4173624;28;20071;-64
2022/06/24 08:51:41;;;;;;;2.83;0.57;;;26.30;64.60;;;;;;4174402;28;20362;-62
2022/06/24 08:53:45;;;;;;;1.60;1.48;;;26.40;64.30;;;;;;4175129;28;20048;-61
2022/06/24 08:55:50;;;;;;;2.95;1.00;;;26.50;64.20;;;;;;4174902;28;20106;-63
2022/06/24 08:57:51;;;;;;;1.30;0.80;;;26.40;63.50;;;;;;4174675;28;20057;-61
2022/06/24 08:59:53;;;;;;;4.57;0.90;;;26.20;63.90;;;;;;4174459;28;20037;-62
2022/06/24 09:01:54;;;;;;;2.30;1.33;;;26.10;64.00;;;;;;4174273;28;20057;-62
2022/06/24 09:03:55;;;;;;;1.13;0.90;;;26.30;64.20;;;;;;4175249;28;20049;-62
2022/06/24 09:05:56;;;;;;;2.67;1.00;;;26.70;64.00;;;;;;4174080;28;20032;-63
2022/06/24 09:08:11;;;;;;;5.03;0.77;;;26.90;63.20;;;;;;4172633;28;20075;-61
2022/06/24 09:10:13;;;;;;;3.05;1.25;;;26.40;63.10;;;;;;4174491;28;20102;-63
2022/06/24 09:12:14;;;;;;;1.35;0.70;;;26.30;63.90;;;;;;4175357;28;20017;-62
2022/06/24 09:14:15;;;;;;;2.38;0.88;;;26.00;62.90;;;;;;4174487;28;20041;-66
2022/06/24 09:16:18;;;;;;;3.28;0.88;;;25.60;63.10;;;;;;4175646;28;20037;-63
2022/06/24 09:18:23;;;;;;;2.55;0.95;;;25.40;63.40;;;;;;4173880;28;20024;-62
2022/06/24 09:20:30;;;;;;;2.22;0.85;;;25.40;62.90;;;;;;4175285;28;20107;-63
2022/06/24 09:22:32;;;;;;;0.77;0.50;;;25.30;63.00;;;;;;4173830;28;20367;-61
2022/06/24 09:24:51;;;;;;;1.10;0.45;;;25.30;63.10;;;;;;4175333;28;20058;-61
2022/06/24 09:27:00;;;;;;;1.10;0.68;;;25.20;62.70;;;;;;4174341;28;20098;-61
2022/06/24 09:29:07;;;;;;;1.10;0.73;;;25.10;62.90;;;;;;4175944;28;20103;-59
2022/06/24 09:31:09;;;;;;;2.75;1.52;;;25.10;63.30;;;;;;4174282;28;20090;-62
2022/06/24 09:33:16;;;;;;;5.72;0.80;;;25.30;63.50;;;;;;4175252;28;20086;-62
2022/06/24 09:35:17;;;;;;;1.75;1.10;;;25.40;63.10;;;;;;4174534;28;20037;-62
2022/06/24 09:37:41;;;;;;;6.43;1.13;;;25.70;63.60;;;;;;4174368;28;20040;-64
2022/06/24 09:39:42;;;;;;;7.00;0.60;;;25.80;62.30;;;;;;4174102;28;20488;-61
2022/06/24 09:41:49;;;;;;;2.08;0.50;;;25.60;62.40;;;;;;4175084;28;20098;-64
2022/06/24 09:43:52;;;;;;;3.67;1.40;;;25.40;61.50;;;;;;4173698;28;20086;-64
2022/06/24 09:45:53;;;;;;;2.70;0.63;;;25.30;61.80;;;;;;4175601;28;20033;-61
2022/06/24 09:47:57;;;;;;;1.13;0.70;;;25.20;61.70;;;;;;4174037;28;20067;-62
2022/06/24 09:49:58;;;;;;;4.38;2.10;;;25.20;61.80;;;;;;4174307;28;20024;-63
2022/06/24 09:51:59;;;;;;;0.90;0.82;;;25.20;62.20;;;;;;4173720;28;20078;-62
2022/06/24 09:54:01;;;;;;;3.38;0.65;;;25.30;62.00;;;;;;4173935;28;20449;-63
2022/06/24 09:56:04;;;;;;;1.67;1.20;;;25.20;61.30;;;;;;4174350;28;20029;-62
2022/06/24 09:58:05;;;;;;;3.55;0.73;;;25.30;61.40;;;;;;4173540;28;20021;-64
2022/06/24 10:02:32;;;;;;;4.65;1.00;;;25.30;61.20;;;;;;4173518;28;20057;-65
2022/06/24 10:04:34;;;;;;;2.55;0.60;;;25.50;61.50;;;;;;4174738;28;20099;-63
2022/06/24 10:06:37;;;;;;;3.85;0.80;;;25.50;61.60;;;;;;4172671;28;20512;-64
2022/06/24 10:08:42;;;;;;;1.25;1.10;;;25.80;61.70;;;;;;4174415;28;20025;-61
2022/06/24 10:10:52;;;;;;;2.67;1.42;;;26.00;61.70;;;;;;4173129;28;20428;-62
2022/06/24 10:12:56;;;;;;;;;;;26.20;61.30;;;;;;4174862;28;20523;-63
2022/06/24 10:14:59;;;;;;;2.30;0.63;;;26.20;61.30;;;;;;4173356;28;19912;-63
2022/06/24 10:17:01;;;;;;;1.13;0.98;;;26.20;61.30;;;;;;4174497;28;20040;-62
2022/06/24 10:19:04;;;;;;;64.72;31.17;;;26.10;60.80;;;;;;4172802;28;20507;-62
2022/06/24 10:21:07;;;;;;;4.90;0.75;;;26.20;61.10;;;;;;4174066;28;20029;-62
2022/06/24 10:23:28;;;;;;;38.17;16.63;;;26.20;60.50;;;;;;4172694;28;20032;-63
2022/06/24 10:25:48;;;;;;;4.85;0.93;;;26.20;60.40;;;;;;4174337;28;20033;-63
2022/06/24 10:27:58;;;;;;;1.60;0.98;;;26.40;60.20;;;;;;4173347;28;20037;-64
2022/06/24 10:29:59;;;;;;;5.30;0.70;;;26.40;58.60;;;;;;4174444;28;20545;-62
2022/06/24 10:32:04;;;;;;;0.98;0.70;;;26.30;58.80;;;;;;4173147;28;20420;-63
2022/06/24 10:34:05;;;;;;;1.50;0.90;;;26.00;58.90;;;;;;4174283;28;20367;-64
2022/06/24 10:36:06;;;;;;;4.50;0.90;;;25.90;58.60;;;;;;4172818;28;20094;-66
2022/06/24 10:38:08;;;;;;;3.92;0.82;;;25.80;58.60;;;;;;4174527;28;20116;-62
2022/06/24 10:40:23;;;;;;;2.95;0.77;;;25.80;58.60;;;;;;4172721;28;20508;-62
2022/06/24 10:42:25;;;;;;;2.47;0.77;;;25.70;57.80;;;;;;4174066;28;20025;-63
2022/06/24 10:44:30;;;;;;;1.02;0.70;;;25.80;58.50;;;;;;4173117;28;20033;-66